createdAt,value
2017-05-19T00:00:54.604Z,256
2017-05-19T00:01:54.490Z,240
2017-05-19T00:02:54.507Z,240
2017-05-19T00:03:54.503Z,240
2017-05-19T00:04:54.494Z,240
2017-05-19T00:05:54.502Z,256
2017-05-19T00:06:54.503Z,240
2017-05-19T00:07:54.498Z,240
2017-05-19T00:08:54.499Z,240
2017-05-19T00:09:54.497Z,240
2017-05-19T00:10:54.468Z,240
2017-05-19T00:11:54.508Z,240
2017-05-19T00:12:54.507Z,240
2017-05-19T00:13:54.508Z,240
2017-05-19T00:14:54.514Z,240
2017-05-19T00:15:54.499Z,240
2017-05-19T00:16:54.511Z,240
2017-05-19T00:17:54.510Z,240
2017-05-19T00:18:54.533Z,240
2017-05-19T00:19:54.513Z,240
2017-05-19T00:20:54.550Z,240
2017-05-19T00:21:54.530Z,240
2017-05-19T00:22:54.513Z,240
2017-05-19T00:23:54.506Z,240
2017-05-19T00:24:54.505Z,240
2017-05-19T00:25:54.477Z,240
2017-05-19T00:26:54.507Z,240
2017-05-19T00:27:54.510Z,240
2017-05-19T00:28:54.520Z,240
2017-05-19T00:29:54.483Z,240
2017-05-19T00:30:54.518Z,240
2017-05-19T00:32:54.511Z,240
2017-05-19T00:33:54.508Z,240
2017-05-19T00:34:54.511Z,240
2017-05-19T00:35:54.509Z,240
2017-05-19T00:36:54.521Z,240
2017-05-19T00:37:54.512Z,256
2017-05-19T00:38:54.525Z,240
2017-05-19T00:39:54.503Z,240
2017-05-19T00:40:54.550Z,240
2017-05-19T00:41:54.512Z,240
2017-05-19T00:42:54.524Z,240
2017-05-19T00:43:54.521Z,256
2017-05-19T00:44:54.526Z,240
2017-05-19T00:45:54.488Z,240
2017-05-19T00:46:54.523Z,240
2017-05-19T00:47:54.529Z,256
2017-05-19T00:48:54.526Z,256
2017-05-19T00:49:54.511Z,240
2017-05-19T00:50:54.529Z,256
2017-05-19T00:51:54.497Z,256
2017-05-19T00:52:54.533Z,256
2017-05-19T00:53:54.519Z,256
2017-05-19T00:54:54.528Z,256
2017-05-19T00:55:54.520Z,256
2017-05-19T00:56:54.528Z,256
2017-05-19T00:57:54.553Z,256
2017-05-19T00:58:54.501Z,256
2017-05-19T00:59:54.535Z,256
2017-05-19T01:00:54.498Z,256
2017-05-19T01:01:54.536Z,256
2017-05-19T01:02:54.574Z,256
2017-05-19T01:03:54.536Z,256
2017-05-19T01:04:54.558Z,256
2017-05-19T01:05:54.537Z,256
2017-05-19T01:06:54.541Z,256
2017-05-19T01:07:54.504Z,256
2017-05-19T01:08:54.538Z,256
2017-05-19T01:09:54.562Z,256
2017-05-19T01:10:54.534Z,256
2017-05-19T01:11:54.542Z,256
2017-05-19T01:12:54.541Z,256
2017-05-19T01:13:54.542Z,256
2017-05-19T01:14:54.544Z,256
2017-05-19T01:15:54.540Z,256
2017-05-19T01:16:54.547Z,256
2017-05-19T01:17:54.538Z,256
2017-05-19T01:18:54.543Z,256
2017-05-19T01:19:54.596Z,256
2017-05-19T01:20:54.648Z,256
2017-05-19T01:21:54.533Z,256
2017-05-19T01:22:54.548Z,272
2017-05-19T01:23:54.536Z,256
2017-05-19T01:24:54.548Z,256
2017-05-19T01:25:54.547Z,272
2017-05-19T01:26:54.537Z,272
2017-05-19T01:27:54.586Z,256
2017-05-19T01:28:54.544Z,272
2017-05-19T01:29:54.553Z,256
2017-05-19T01:30:54.513Z,256
2017-05-19T01:31:54.554Z,256
2017-05-19T01:32:54.519Z,256
2017-05-19T01:33:54.516Z,256
2017-05-19T01:34:54.555Z,256
2017-05-19T01:35:54.572Z,256
2017-05-19T01:36:54.544Z,256
2017-05-19T01:37:54.556Z,256
2017-05-19T01:38:54.541Z,256
2017-05-19T01:39:54.574Z,256
2017-05-19T01:40:54.552Z,256
2017-05-19T01:41:54.557Z,256
2017-05-19T01:42:54.552Z,256
2017-05-19T01:43:54.526Z,256
2017-05-19T01:44:54.552Z,256
2017-05-19T01:45:54.519Z,256
2017-05-19T01:46:54.558Z,256
2017-05-19T01:47:54.562Z,256
2017-05-19T01:48:54.565Z,256
2017-05-19T01:49:54.549Z,256
2017-05-19T01:50:54.558Z,256
2017-05-19T01:51:54.563Z,256
2017-05-19T01:52:54.553Z,256
2017-05-19T01:53:54.562Z,256
2017-05-19T01:54:54.562Z,256
2017-05-19T01:55:54.530Z,256
2017-05-19T01:56:54.584Z,256
2017-05-19T01:57:54.546Z,256
2017-05-19T01:58:54.555Z,256
2017-05-19T01:59:54.556Z,256
2017-05-19T02:00:54.557Z,256
2017-05-19T02:01:54.532Z,256
2017-05-19T02:02:54.567Z,240
2017-05-19T02:03:54.554Z,256
2017-05-19T02:04:54.565Z,256
2017-05-19T02:05:54.564Z,256
2017-05-19T02:06:54.532Z,256
2017-05-19T02:07:54.559Z,256
2017-05-19T02:08:54.562Z,256
2017-05-19T02:09:54.572Z,240
2017-05-19T02:10:54.570Z,240
2017-05-19T02:11:54.562Z,240
2017-05-19T02:12:54.589Z,240
2017-05-19T02:13:54.594Z,240
2017-05-19T02:14:54.537Z,240
2017-05-19T02:15:54.574Z,240
2017-05-19T02:16:54.557Z,240
2017-05-19T02:17:54.593Z,240
2017-05-19T02:18:54.573Z,240
2017-05-19T02:19:54.573Z,256
2017-05-19T02:20:54.539Z,240
2017-05-19T02:21:54.597Z,240
2017-05-19T02:22:54.593Z,240
2017-05-19T02:23:54.565Z,240
2017-05-19T02:24:54.600Z,240
2017-05-19T02:25:54.566Z,240
2017-05-19T02:26:54.594Z,240
2017-05-19T02:27:54.597Z,240
2017-05-19T02:28:54.577Z,240
2017-05-19T02:29:54.567Z,256
2017-05-19T02:30:54.571Z,240
2017-05-19T02:31:54.574Z,240
2017-05-19T02:32:54.581Z,240
2017-05-19T02:33:54.579Z,240
2017-05-19T02:34:54.607Z,240
2017-05-19T02:35:54.602Z,240
2017-05-19T02:36:54.606Z,240
2017-05-19T02:37:54.569Z,240
2017-05-19T02:38:54.576Z,240
2017-05-19T02:39:54.589Z,240
2017-05-19T02:40:54.570Z,240
2017-05-19T02:41:54.607Z,240
2017-05-19T02:42:54.585Z,240
2017-05-19T02:43:54.587Z,240
2017-05-19T02:44:54.609Z,240
2017-05-19T02:45:54.572Z,240
2017-05-19T02:46:54.579Z,240
2017-05-19T02:47:54.580Z,240
2017-05-19T02:48:54.587Z,240
2017-05-19T02:49:54.557Z,240
2017-05-19T02:50:54.588Z,240
2017-05-19T02:51:54.592Z,240
2017-05-19T02:52:54.588Z,240
2017-05-19T02:53:54.584Z,240
2017-05-19T02:54:54.593Z,240
2017-05-19T02:55:54.578Z,240
2017-05-19T02:56:54.592Z,240
2017-05-19T02:57:54.596Z,240
2017-05-19T02:58:54.613Z,240
2017-05-19T02:59:54.556Z,240
2017-05-19T03:00:54.595Z,240
2017-05-19T03:01:54.558Z,240
2017-05-19T03:02:54.580Z,240
2017-05-19T03:03:54.595Z,240
2017-05-19T03:04:54.619Z,224
2017-05-19T03:05:54.564Z,240
2017-05-19T03:06:54.599Z,224
2017-05-19T03:07:54.591Z,224
2017-05-19T03:08:54.602Z,224
2017-05-19T03:09:54.592Z,224
2017-05-19T03:10:54.559Z,224
2017-05-19T03:11:54.603Z,224
2017-05-19T03:12:54.566Z,224
2017-05-19T03:13:54.624Z,224
2017-05-19T03:14:54.594Z,224
2017-05-19T03:15:54.711Z,224
2017-05-19T03:16:54.604Z,224
2017-05-19T03:17:54.625Z,224
2017-05-19T03:18:54.607Z,224
2017-05-19T03:19:54.601Z,224
2017-05-19T03:20:54.662Z,224
2017-05-19T03:21:54.602Z,224
2017-05-19T03:22:54.611Z,224
2017-05-19T03:23:54.613Z,224
2017-05-19T03:24:54.599Z,224
2017-05-19T03:25:54.613Z,224
2017-05-19T03:26:54.598Z,224
2017-05-19T03:27:54.616Z,224
2017-05-19T03:28:54.613Z,224
2017-05-19T03:29:54.602Z,224
2017-05-19T03:30:54.594Z,224
2017-05-19T03:31:54.603Z,224
2017-05-19T03:32:54.630Z,224
2017-05-19T03:33:54.599Z,224
2017-05-19T03:34:54.616Z,224
2017-05-19T03:35:54.578Z,224
2017-05-19T03:36:54.610Z,224
2017-05-19T03:37:54.620Z,224
2017-05-19T03:38:54.613Z,224
2017-05-19T03:39:54.614Z,224
2017-05-19T03:40:54.580Z,224
2017-05-19T03:41:54.581Z,224
2017-05-19T03:42:54.619Z,224
2017-05-19T03:43:54.608Z,224
2017-05-19T03:44:54.606Z,224
2017-05-19T03:45:54.655Z,224
2017-05-19T03:46:54.622Z,224
2017-05-19T03:47:54.610Z,224
2017-05-19T03:48:54.612Z,224
2017-05-19T03:49:54.623Z,224
2017-05-19T03:50:54.627Z,224
2017-05-19T03:51:54.621Z,224
2017-05-19T03:52:54.621Z,224
2017-05-19T03:53:54.643Z,224
2017-05-19T03:54:54.611Z,224
2017-05-19T03:55:54.621Z,224
2017-05-19T03:56:54.619Z,224
2017-05-19T03:57:54.627Z,208
2017-05-19T03:58:54.621Z,208
2017-05-19T03:59:54.627Z,208
2017-05-19T04:00:54.628Z,208
2017-05-19T04:01:54.614Z,208
2017-05-19T04:02:54.666Z,208
2017-05-19T04:03:54.619Z,208
2017-05-19T04:04:54.651Z,208
2017-05-19T04:05:54.626Z,208
2017-05-19T04:06:54.626Z,208
2017-05-19T04:07:54.706Z,208
2017-05-19T04:08:54.632Z,208
2017-05-19T04:09:54.739Z,208
2017-05-19T04:10:54.620Z,208
2017-05-19T04:11:54.600Z,208
2017-05-19T04:12:54.636Z,208
2017-05-19T04:13:54.638Z,208
2017-05-19T04:14:54.623Z,208
2017-05-19T04:15:54.640Z,208
2017-05-19T04:16:54.627Z,208
2017-05-19T04:17:54.623Z,208
2017-05-19T04:18:54.622Z,208
2017-05-19T04:19:54.628Z,208
2017-05-19T04:20:54.689Z,208
2017-05-19T04:21:54.634Z,208
2017-05-19T04:22:54.638Z,208
2017-05-19T04:23:54.630Z,208
2017-05-19T04:24:54.635Z,208
2017-05-19T04:25:54.614Z,208
2017-05-19T04:26:54.661Z,208
2017-05-19T04:27:54.642Z,208
2017-05-19T04:28:54.801Z,208
2017-05-19T04:29:54.644Z,208
2017-05-19T04:30:54.620Z,208
2017-05-19T04:31:54.635Z,208
2017-05-19T04:32:54.645Z,208
2017-05-19T04:33:54.621Z,208
2017-05-19T04:34:54.698Z,208
2017-05-19T04:35:54.633Z,208
2017-05-19T04:36:54.603Z,208
2017-05-19T04:37:54.605Z,208
2017-05-19T04:38:54.647Z,208
2017-05-19T04:39:54.640Z,208
2017-05-19T04:40:54.623Z,208
2017-05-19T04:41:54.637Z,208
2017-05-19T04:42:54.638Z,208
2017-05-19T04:43:54.646Z,208
2017-05-19T04:44:54.639Z,208
2017-05-19T04:45:54.624Z,208
2017-05-19T04:46:54.651Z,208
2017-05-19T04:47:54.611Z,208
2017-05-19T04:48:54.654Z,208
2017-05-19T04:49:54.643Z,208
2017-05-19T04:50:54.672Z,208
2017-05-19T04:51:54.649Z,208
2017-05-19T04:52:54.632Z,208
2017-05-19T04:53:54.645Z,208
2017-05-19T04:54:54.619Z,208
2017-05-19T04:55:54.616Z,208
2017-05-19T04:56:54.642Z,208
2017-05-19T04:57:54.657Z,208
2017-05-19T04:58:54.672Z,208
2017-05-19T04:59:54.635Z,208
2017-05-19T05:00:54.657Z,208
2017-05-19T05:01:54.672Z,208
2017-05-19T05:02:54.682Z,208
2017-05-19T05:03:54.661Z,208
2017-05-19T05:04:54.657Z,208
2017-05-19T05:05:54.647Z,208
2017-05-19T05:06:54.657Z,208
2017-05-19T05:07:54.663Z,208
2017-05-19T05:08:54.623Z,208
2017-05-19T05:09:54.680Z,208
2017-05-19T05:10:54.660Z,208
2017-05-19T05:11:54.682Z,208
2017-05-19T05:12:54.666Z,208
2017-05-19T05:13:54.671Z,208
2017-05-19T05:14:54.666Z,208
2017-05-19T05:15:54.669Z,208
2017-05-19T05:16:54.656Z,208
2017-05-19T05:17:54.622Z,224
2017-05-19T05:18:54.659Z,224
2017-05-19T05:19:54.660Z,208
2017-05-19T05:20:54.666Z,208
2017-05-19T05:21:54.646Z,224
2017-05-19T05:22:54.658Z,224
2017-05-19T05:23:54.671Z,224
2017-05-19T05:24:54.668Z,224
2017-05-19T05:25:54.647Z,224
2017-05-19T05:26:54.721Z,224
2017-05-19T05:27:54.630Z,224
2017-05-19T05:28:54.668Z,224
2017-05-19T05:29:54.669Z,224
2017-05-19T05:30:54.656Z,224
2017-05-19T05:31:54.667Z,224
2017-05-19T05:32:54.654Z,224
2017-05-19T05:33:54.773Z,224
2017-05-19T05:34:54.745Z,224
2017-05-19T05:35:54.674Z,224
2017-05-19T05:36:54.668Z,224
2017-05-19T05:37:54.699Z,224
2017-05-19T05:38:54.655Z,240
2017-05-19T05:39:54.659Z,240
2017-05-19T05:40:54.679Z,224
2017-05-19T05:41:54.671Z,240
2017-05-19T05:42:54.673Z,240
2017-05-19T05:43:54.682Z,240
2017-05-19T05:44:54.683Z,240
2017-05-19T05:45:54.639Z,240
2017-05-19T05:46:54.681Z,240
2017-05-19T05:47:54.683Z,240
2017-05-19T05:48:54.643Z,240
2017-05-19T05:49:54.676Z,240
2017-05-19T05:50:54.663Z,240
2017-05-19T05:51:54.675Z,240
2017-05-19T05:52:54.674Z,240
2017-05-19T05:53:54.684Z,240
2017-05-19T05:54:54.683Z,240
2017-05-19T05:55:54.676Z,240
2017-05-19T05:56:54.685Z,240
2017-05-19T05:57:54.684Z,240
2017-05-19T05:58:54.681Z,240
2017-05-19T05:59:54.685Z,240
2017-05-19T06:00:54.680Z,240
2017-05-19T06:01:54.686Z,224
2017-05-19T06:02:54.687Z,224
2017-05-19T06:03:54.710Z,240
2017-05-19T06:04:54.650Z,240
2017-05-19T06:05:54.691Z,240
2017-05-19T06:06:54.680Z,240
2017-05-19T06:07:54.713Z,224
2017-05-19T06:08:54.665Z,224
2017-05-19T06:09:54.690Z,240
2017-05-19T06:10:54.692Z,240
2017-05-19T06:11:54.716Z,240
2017-05-19T06:12:54.650Z,224
2017-05-19T06:13:54.688Z,240
2017-05-19T06:14:54.696Z,240
2017-05-19T06:15:54.654Z,240
2017-05-19T06:16:54.684Z,224
2017-05-19T06:17:54.689Z,240
2017-05-19T06:18:54.678Z,224
2017-05-19T06:19:54.690Z,240
2017-05-19T06:20:54.695Z,240
2017-05-19T06:21:54.700Z,224
2017-05-19T06:22:54.692Z,240
2017-05-19T06:23:54.704Z,240
2017-05-19T06:24:54.699Z,240
2017-05-19T06:25:54.704Z,240
2017-05-19T06:26:54.808Z,240
2017-05-19T06:27:54.711Z,224
2017-05-19T06:28:54.665Z,224
2017-05-19T06:29:54.706Z,240
2017-05-19T06:30:54.701Z,224
2017-05-19T06:31:54.703Z,240
2017-05-19T06:32:54.704Z,240
2017-05-19T06:33:54.725Z,240
2017-05-19T06:34:54.666Z,240
2017-05-19T06:35:54.724Z,240
2017-05-19T06:36:54.689Z,240
2017-05-19T06:37:54.706Z,240
2017-05-19T06:38:54.696Z,240
2017-05-19T06:39:54.701Z,224
2017-05-19T06:40:54.766Z,224
2017-05-19T06:41:54.786Z,240
2017-05-19T06:42:54.700Z,240
2017-05-19T06:43:54.703Z,240
2017-05-19T06:44:54.687Z,224
2017-05-19T06:45:54.708Z,240
2017-05-19T06:46:54.678Z,224
2017-05-19T06:47:54.708Z,240
2017-05-19T06:48:54.711Z,240
2017-05-19T06:49:54.735Z,240
2017-05-19T06:50:54.701Z,240
2017-05-19T06:51:54.715Z,240
2017-05-19T06:52:54.703Z,240
2017-05-19T06:53:54.710Z,240
2017-05-19T06:54:54.711Z,224
2017-05-19T06:55:54.718Z,224
2017-05-19T06:56:54.713Z,224
2017-05-19T06:57:54.715Z,224
2017-05-19T06:58:54.724Z,224
2017-05-19T06:59:54.718Z,224
2017-05-19T07:00:54.695Z,224
2017-05-19T07:01:54.711Z,224
2017-05-19T07:02:54.718Z,224
2017-05-19T07:03:54.717Z,224
2017-05-19T07:04:54.709Z,224
2017-05-19T07:05:54.736Z,224
2017-05-19T07:06:54.703Z,224
2017-05-19T07:07:54.719Z,224
2017-05-19T07:08:54.689Z,224
2017-05-19T07:09:54.681Z,224
2017-05-19T07:10:54.714Z,224
2017-05-19T07:11:54.716Z,240
2017-05-19T07:12:54.723Z,240
2017-05-19T07:13:54.722Z,240
2017-05-19T07:14:54.788Z,240
2017-05-19T07:15:54.724Z,240
2017-05-19T07:16:54.729Z,240
2017-05-19T07:17:54.730Z,240
2017-05-19T07:18:54.742Z,224
2017-05-19T07:19:54.694Z,224
2017-05-19T07:20:54.704Z,224
2017-05-19T07:21:54.749Z,224
2017-05-19T07:22:54.899Z,224
2017-05-19T07:23:54.726Z,208
2017-05-19T07:24:54.737Z,208
2017-05-19T07:25:54.754Z,208
2017-05-19T07:26:54.698Z,208
2017-05-19T07:27:54.728Z,208
2017-05-19T07:28:54.737Z,208
2017-05-19T07:29:54.735Z,208
2017-05-19T07:30:54.739Z,192
2017-05-19T07:31:54.706Z,192
2017-05-19T07:32:54.735Z,192
2017-05-19T07:33:54.690Z,192
2017-05-19T07:34:54.757Z,192
2017-05-19T07:35:54.692Z,192
2017-05-19T07:36:54.728Z,192
2017-05-19T07:37:54.738Z,192
2017-05-19T07:38:54.760Z,192
2017-05-19T07:39:54.714Z,176
2017-05-19T07:40:54.760Z,176
2017-05-19T07:41:54.739Z,176
2017-05-19T07:42:54.739Z,176
2017-05-19T07:43:54.726Z,176
2017-05-19T07:44:54.718Z,176
2017-05-19T07:45:54.702Z,176
2017-05-19T07:46:54.732Z,176
2017-05-19T07:47:54.737Z,176
2017-05-19T07:48:54.763Z,176
2017-05-19T07:49:54.739Z,176
2017-05-19T07:50:54.747Z,176
2017-05-19T07:51:54.748Z,176
2017-05-19T07:52:54.746Z,176
2017-05-19T07:53:54.744Z,176
2017-05-19T07:54:54.772Z,176
2017-05-19T07:55:54.724Z,160
2017-05-19T07:56:54.750Z,160
2017-05-19T07:57:54.746Z,160
2017-05-19T07:58:54.747Z,160
2017-05-19T07:59:54.750Z,160
2017-05-19T08:00:54.748Z,160
2017-05-19T08:01:54.751Z,160
2017-05-19T08:02:54.713Z,160
2017-05-19T08:03:54.754Z,160
2017-05-19T08:04:54.771Z,160
2017-05-19T08:05:54.751Z,160
2017-05-19T08:06:54.712Z,160
2017-05-19T08:07:54.714Z,160
2017-05-19T08:08:54.774Z,160
2017-05-19T08:09:54.713Z,160
2017-05-19T08:10:54.751Z,160
2017-05-19T08:11:54.754Z,160
2017-05-19T08:12:54.752Z,160
2017-05-19T08:13:54.776Z,160
2017-05-19T08:14:54.735Z,160
2017-05-19T08:15:54.757Z,160
2017-05-19T08:16:54.754Z,160
2017-05-19T08:17:54.753Z,160
2017-05-19T08:18:54.776Z,160
2017-05-19T08:19:54.738Z,160
2017-05-19T08:20:54.757Z,160
2017-05-19T08:21:54.755Z,160
2017-05-19T08:22:54.743Z,160
2017-05-19T08:23:54.784Z,160
2017-05-19T08:24:54.764Z,160
2017-05-19T08:25:54.754Z,160
2017-05-19T08:26:54.743Z,160
2017-05-19T08:27:54.768Z,160
2017-05-19T08:28:54.761Z,160
2017-05-19T08:29:54.726Z,160
2017-05-19T08:30:54.726Z,160
2017-05-19T08:31:54.765Z,160
2017-05-19T08:32:54.745Z,160
2017-05-19T08:33:54.769Z,160
2017-05-19T08:34:54.790Z,160
2017-05-19T08:35:54.767Z,144
2017-05-19T08:36:54.732Z,144
2017-05-19T08:37:54.768Z,144
2017-05-19T08:38:54.765Z,144
2017-05-19T08:39:54.789Z,144
2017-05-19T08:40:54.875Z,144
2017-05-19T08:41:54.735Z,144
2017-05-19T08:42:54.764Z,144
2017-05-19T08:43:54.796Z,144
2017-05-19T08:44:54.767Z,144
2017-05-19T08:45:54.750Z,144
2017-05-19T08:46:54.736Z,144
2017-05-19T08:47:54.776Z,144
2017-05-19T08:48:54.836Z,144
2017-05-19T08:49:54.880Z,144
2017-05-19T08:50:54.793Z,144
2017-05-19T08:51:54.795Z,144
2017-05-19T08:52:54.774Z,144
2017-05-19T08:53:54.773Z,144
2017-05-19T08:54:54.779Z,144
2017-05-19T08:55:54.783Z,144
2017-05-19T08:56:54.755Z,144
2017-05-19T08:57:54.779Z,144
2017-05-19T08:58:54.778Z,144
2017-05-19T08:59:54.760Z,144
2017-05-19T09:00:54.783Z,144
2017-05-19T09:01:54.781Z,144
2017-05-19T09:02:54.776Z,144
2017-05-19T09:03:54.811Z,144
2017-05-19T09:04:54.781Z,144
2017-05-19T09:05:54.775Z,144
2017-05-19T09:06:54.746Z,144
2017-05-19T09:07:54.783Z,144
2017-05-19T09:08:54.775Z,128
2017-05-19T09:09:54.801Z,128
2017-05-19T09:10:54.807Z,128
2017-05-19T09:11:54.787Z,128
2017-05-19T09:12:54.781Z,128
2017-05-19T09:13:54.780Z,128
2017-05-19T09:14:54.777Z,128
2017-05-19T09:15:54.788Z,128
2017-05-19T09:16:54.784Z,128
2017-05-19T09:17:54.806Z,128
2017-05-19T09:18:54.788Z,128
2017-05-19T09:19:54.793Z,128
2017-05-19T09:20:54.787Z,128
2017-05-19T09:21:54.792Z,128
2017-05-19T09:22:54.790Z,128
2017-05-19T09:23:54.794Z,128
2017-05-19T09:24:54.755Z,128
2017-05-19T09:25:54.795Z,128
2017-05-19T09:26:54.815Z,128
2017-05-19T09:27:54.812Z,128
2017-05-19T09:28:54.816Z,128
2017-05-19T09:29:54.792Z,128
2017-05-19T09:30:54.756Z,128
2017-05-19T09:31:54.816Z,112
2017-05-19T09:32:54.819Z,112
2017-05-19T09:33:54.754Z,112
2017-05-19T09:34:54.799Z,112
2017-05-19T09:35:54.774Z,112
2017-05-19T09:36:54.764Z,112
2017-05-19T09:37:54.801Z,112
2017-05-19T09:38:54.757Z,112
2017-05-19T09:39:54.800Z,112
2017-05-19T09:40:54.803Z,112
2017-05-19T09:41:54.798Z,112
2017-05-19T09:42:54.761Z,112
2017-05-19T09:43:54.794Z,112
2017-05-19T09:44:54.804Z,112
2017-05-19T09:45:54.766Z,112
2017-05-19T09:46:54.808Z,112
2017-05-19T09:47:54.804Z,112
2017-05-19T09:48:54.799Z,112
2017-05-19T09:49:54.800Z,112
2017-05-19T09:50:54.806Z,112
2017-05-19T09:51:54.808Z,112
2017-05-19T09:52:54.782Z,112
2017-05-19T09:53:54.812Z,112
2017-05-19T09:54:54.831Z,112
2017-05-19T09:55:54.809Z,112
2017-05-19T09:56:54.816Z,96
2017-05-19T09:57:54.871Z,96
2017-05-19T09:58:54.812Z,96
2017-05-19T09:59:54.828Z,96
2017-05-19T10:00:54.918Z,96
2017-05-19T10:01:54.828Z,96
2017-05-19T10:02:54.804Z,96
2017-05-19T10:03:54.920Z,96
2017-05-19T10:04:54.815Z,96
2017-05-19T10:05:54.812Z,96
2017-05-19T10:06:54.816Z,96
2017-05-19T10:07:54.814Z,96
2017-05-19T10:08:54.794Z,96
2017-05-19T10:09:54.778Z,96
2017-05-19T10:10:54.815Z,96
2017-05-19T10:11:54.798Z,96
2017-05-19T10:12:54.808Z,96
2017-05-19T10:13:54.818Z,96
2017-05-19T10:14:54.827Z,96
2017-05-19T10:15:54.840Z,96
2017-05-19T10:16:54.836Z,96
2017-05-19T10:17:54.803Z,96
2017-05-19T10:18:54.797Z,96
2017-05-19T10:19:54.822Z,96
2017-05-19T10:20:54.826Z,96
2017-05-19T10:21:54.822Z,96
2017-05-19T10:22:54.833Z,96
2017-05-19T10:23:54.785Z,96
2017-05-19T10:24:54.817Z,96
2017-05-19T10:25:54.822Z,96
2017-05-19T10:26:54.818Z,96
2017-05-19T10:27:54.828Z,96
2017-05-19T10:28:54.800Z,96
2017-05-19T10:29:54.824Z,96
2017-05-19T10:30:54.845Z,96
2017-05-19T10:31:54.787Z,80
2017-05-19T10:32:54.792Z,80
2017-05-19T10:33:54.824Z,80
2017-05-19T10:34:54.851Z,80
2017-05-19T10:35:54.850Z,80
2017-05-19T10:36:54.831Z,80
2017-05-19T10:37:54.832Z,80
2017-05-19T10:38:54.830Z,80
2017-05-19T10:39:54.828Z,80
2017-05-19T10:40:54.827Z,80
2017-05-19T10:41:54.825Z,80
2017-05-19T10:42:54.829Z,80
2017-05-19T10:43:54.851Z,80
2017-05-19T10:44:54.811Z,80
2017-05-19T10:45:54.854Z,80
2017-05-19T10:46:54.831Z,80
2017-05-19T10:47:54.855Z,80
2017-05-19T10:48:54.812Z,80
2017-05-19T10:49:54.842Z,80
2017-05-19T10:50:54.839Z,80
2017-05-19T10:51:54.839Z,80
2017-05-19T10:52:54.860Z,80
2017-05-19T10:53:54.839Z,80
2017-05-19T10:54:54.860Z,80
2017-05-19T10:55:54.855Z,80
2017-05-19T10:56:54.836Z,80
2017-05-19T10:57:54.846Z,80
2017-05-19T10:58:54.861Z,80
2017-05-19T10:59:54.834Z,80
2017-05-19T11:00:54.836Z,80
2017-05-19T11:01:54.844Z,80
2017-05-19T11:02:54.839Z,80
2017-05-19T11:03:54.818Z,80
2017-05-19T11:04:54.822Z,80
2017-05-19T11:05:54.860Z,80
2017-05-19T11:06:54.843Z,80
2017-05-19T11:07:54.841Z,80
2017-05-19T11:08:54.850Z,80
2017-05-19T11:09:54.851Z,80
2017-05-19T11:10:54.852Z,80
2017-05-19T11:11:54.823Z,80
2017-05-19T11:12:54.850Z,80
2017-05-19T11:13:54.850Z,80
2017-05-19T11:14:54.858Z,80
2017-05-19T11:15:54.873Z,80
2017-05-19T11:16:54.842Z,80
2017-05-19T11:17:54.844Z,80
2017-05-19T11:18:54.811Z,80
2017-05-19T11:19:54.851Z,80
2017-05-19T11:20:54.844Z,64
2017-05-19T11:21:54.851Z,80
2017-05-19T11:22:54.934Z,64
2017-05-19T11:23:54.877Z,64
2017-05-19T11:24:54.812Z,64
2017-05-19T11:25:54.857Z,64
2017-05-19T11:26:54.872Z,64
2017-05-19T11:27:54.821Z,64
2017-05-19T11:28:54.861Z,64
2017-05-19T11:29:54.849Z,64
2017-05-19T11:30:54.905Z,64
2017-05-19T11:31:54.882Z,64
2017-05-19T11:32:54.882Z,64
2017-05-19T11:33:54.853Z,64
2017-05-19T11:34:54.860Z,64
2017-05-19T11:35:54.862Z,64
2017-05-19T11:36:54.865Z,64
2017-05-19T11:37:54.861Z,64
2017-05-19T11:38:54.868Z,64
2017-05-19T11:39:54.863Z,64
2017-05-19T11:40:54.862Z,64
2017-05-19T11:41:54.842Z,64
2017-05-19T11:42:54.868Z,64
2017-05-19T11:43:54.882Z,64
2017-05-19T11:44:54.869Z,64
2017-05-19T11:45:54.939Z,64
2017-05-19T11:46:54.865Z,64
2017-05-19T11:47:54.867Z,64
2017-05-19T11:48:54.858Z,64
2017-05-19T11:49:54.833Z,64
2017-05-19T11:50:54.889Z,64
2017-05-19T11:51:54.861Z,64
2017-05-19T11:52:54.875Z,64
2017-05-19T11:53:54.863Z,48
2017-05-19T11:54:54.864Z,64
2017-05-19T11:55:54.862Z,48
2017-05-19T11:57:54.863Z,64
2017-05-19T11:58:54.871Z,64
2017-05-19T11:59:54.877Z,64
2017-05-19T12:00:54.873Z,64
2017-05-19T12:02:54.877Z,48
2017-05-19T12:03:54.897Z,64
2017-05-19T12:04:54.880Z,48
2017-05-19T12:05:54.839Z,64
2017-05-19T12:06:54.874Z,48
2017-05-19T12:07:54.877Z,48
2017-05-19T12:08:54.839Z,48
2017-05-19T12:09:54.873Z,48
2017-05-19T12:10:54.882Z,48
2017-05-19T12:11:54.873Z,48
2017-05-19T12:12:54.879Z,48
2017-05-19T12:13:54.883Z,48
2017-05-19T12:14:54.880Z,48
2017-05-19T12:15:54.876Z,48
2017-05-19T12:16:54.873Z,48
2017-05-19T12:17:54.845Z,48
2017-05-19T12:18:54.884Z,48
2017-05-19T12:19:54.886Z,48
2017-05-19T12:20:54.886Z,48
2017-05-19T12:21:54.887Z,48
2017-05-19T12:22:54.883Z,48
2017-05-19T12:23:54.881Z,48
2017-05-19T12:24:54.886Z,48
2017-05-19T12:25:54.884Z,48
2017-05-19T12:26:54.888Z,48
2017-05-19T12:27:54.890Z,48
2017-05-19T12:28:54.888Z,48
2017-05-19T12:29:54.863Z,48
2017-05-19T12:30:54.869Z,48
2017-05-19T12:31:54.888Z,48
2017-05-19T12:32:54.911Z,48
2017-05-19T12:33:54.896Z,48
2017-05-19T12:34:54.893Z,48
2017-05-19T12:35:54.890Z,48
2017-05-19T12:36:54.884Z,48
2017-05-19T12:37:54.859Z,48
2017-05-19T12:38:54.918Z,48
2017-05-19T12:39:54.893Z,48
2017-05-19T12:40:54.887Z,48
2017-05-19T12:41:54.887Z,48
2017-05-19T12:42:54.897Z,48
2017-05-19T12:43:54.890Z,48
2017-05-19T12:44:54.894Z,48
2017-05-19T12:45:55.002Z,48
2017-05-19T12:46:54.897Z,48
2017-05-19T12:47:54.877Z,48
2017-05-19T12:48:54.945Z,48
2017-05-19T12:49:54.899Z,48
2017-05-19T12:50:54.900Z,48
2017-05-19T12:51:54.895Z,48
2017-05-19T12:52:54.917Z,48
2017-05-19T12:53:54.904Z,48
2017-05-19T12:54:54.906Z,48
2017-05-19T12:55:54.924Z,48
2017-05-19T12:56:54.906Z,48
2017-05-19T12:57:54.900Z,48
2017-05-19T12:58:54.907Z,48
2017-05-19T12:59:54.896Z,48
2017-05-19T13:00:54.906Z,48
2017-05-19T13:01:54.902Z,48
2017-05-19T13:02:54.889Z,48
2017-05-19T13:03:54.911Z,48
2017-05-19T13:04:54.912Z,48
2017-05-19T13:05:54.908Z,48
2017-05-19T13:06:54.886Z,48
2017-05-19T13:07:54.887Z,64
2017-05-19T13:08:54.875Z,48
2017-05-19T13:09:54.912Z,48
2017-05-19T13:10:54.876Z,48
2017-05-19T13:11:54.889Z,48
2017-05-19T13:12:54.933Z,48
2017-05-19T13:13:54.902Z,64
2017-05-19T13:14:54.931Z,64
2017-05-19T13:15:54.893Z,64
2017-05-19T13:16:54.934Z,64
2017-05-19T13:17:54.915Z,48
2017-05-19T13:18:54.894Z,64
2017-05-19T13:19:54.919Z,64
2017-05-19T13:20:54.914Z,64
2017-05-19T13:21:54.911Z,64
2017-05-19T13:22:54.911Z,64
2017-05-19T13:23:55.023Z,64
2017-05-19T13:24:54.909Z,64
2017-05-19T13:25:54.919Z,64
2017-05-19T13:26:54.919Z,64
2017-05-19T13:27:54.918Z,64
2017-05-19T13:28:54.915Z,64
2017-05-19T13:29:54.939Z,64
2017-05-19T13:30:54.894Z,64
2017-05-19T13:31:54.919Z,64
2017-05-19T13:32:54.896Z,64
2017-05-19T13:33:54.915Z,64
2017-05-19T13:34:54.917Z,64
2017-05-19T13:35:54.914Z,64
2017-05-19T13:36:54.924Z,80
2017-05-19T13:37:54.917Z,80
2017-05-19T13:38:54.923Z,80
2017-05-19T13:39:54.890Z,80
2017-05-19T13:40:54.926Z,80
2017-05-19T13:41:54.918Z,96
2017-05-19T13:42:54.922Z,96
2017-05-19T13:43:54.947Z,96
2017-05-19T13:44:54.929Z,96
2017-05-19T13:45:54.931Z,112
2017-05-19T13:46:54.934Z,112
2017-05-19T13:47:54.949Z,112
2017-05-19T13:48:54.893Z,112
2017-05-19T13:49:54.911Z,112
2017-05-19T13:50:54.935Z,112
2017-05-19T13:51:55.034Z,128
2017-05-19T13:52:54.956Z,128
2017-05-19T13:53:54.911Z,128
2017-05-19T13:54:54.937Z,128
2017-05-19T13:55:54.979Z,128
2017-05-19T13:56:54.938Z,128